Hestrud (Nord, France) - 208 m
Donnes mto: Actuelle samedi, 06/06/2020 11:31
Date Horaire Temp Out Temp. 4 Temp. E. min Temp. E. max Temp. Sol 1 Hum Out Hum. Sol 1 Press Rain Wind Dir Dir Solar Ev.Tr. UV Hi Solar Rad Dew Point Windchill Wind (Gust)
06/06/2020 11:31 12,5 C 31,1 C 12,5 C 12,5 C 12,8 C 80 % 51 cb 1001,3 hPa 0,0 mm 12,9 km/h (3 Bft) O-SO 247 56 min 0,178 mm 1,9 UV-I 209 W/m 9,1 C 9,0 C 20,9 km/h (4 Bft)
06/06/2020 10:31 10,4 C 27,8 C 10,3 C 10,4 C 11,7 C 93 % 53 cb 1001,0 hPa 0,2 mm 6,4 km/h (2 Bft) O-SO 247 40 min 0,076 mm 2,3 UV-I 329 W/m 9,3 C 10,4 C 11,3 km/h (2 Bft)
06/06/2020 09:31 8,6 C 12,8 C 8,6 C 8,6 C 9,4 C 94 % 54 cb 1000,7 hPa 1,8 mm 8,0 km/h (2 Bft) O 270 11 min 0,051 mm 0,0 UV-I 57 W/m 7,7 C 7,4 C 11,3 km/h (2 Bft)
06/06/2020 08:31 8,4 C 12,8 C 8,4 C 8,4 C 8,9 C 95 % 68 cb 1000,4 hPa 0,6 mm 12,9 km/h (3 Bft) O-SO 247 0 min 0,025 mm 0,5 UV-I 86 W/m 7,6 C 4,2 C 17,7 km/h (3 Bft)
06/06/2020 07:31 8,2 C 10,6 C 8,2 C 8,2 C 8,9 C 96 % 80 cb 1000,1 hPa 0,0 mm 12,9 km/h (3 Bft) O 270 0 min 0,025 mm 0,0 UV-I 53 W/m 7,6 C 4,0 C 20,9 km/h (4 Bft)
06/06/2020 06:31 7,8 C 10,6 C 7,8 C 7,8 C 8,3 C 96 % 75 cb 999,5 hPa 0,0 mm 9,7 km/h (2 Bft) O-SO 247 0 min 0,000 mm 0,0 UV-I 32 W/m 7,2 C 5,4 C 12,9 km/h (3 Bft)
06/06/2020 05:31 7,2 C 7,8 C 7,2 C 7,2 C 7,8 C 95 % 68 cb 999,3 hPa 0,0 mm 6,4 km/h (2 Bft) SO 225 0 min 0,000 mm 0,0 UV-I 0 W/m 6,5 C 7,2 C 9,7 km/h (2 Bft)
06/06/2020 04:31 7,4 C 8,3 C 7,4 C 7,4 C 7,8 C 94 % 63 cb 999,4 hPa 0,0 mm 11,3 km/h (2 Bft) O-SO 247 0 min 0,000 mm 0,0 UV-I 0 W/m 6,5 C 3,9 C 16,1 km/h (3 Bft)
06/06/2020 03:31 7,4 C 8,3 C 7,4 C 7,4 C 8,3 C 95 % 59 cb 999,3 hPa 0,0 mm 9,7 km/h (2 Bft) O-SO 247 0 min 0,000 mm 0,0 UV-I 0 W/m 6,7 C 4,9 C 11,3 km/h (2 Bft)
06/06/2020 02:31 7,0 C 8,3 C 7,0 C 7,0 C 7,8 C 96 % 55 cb 999,5 hPa 0,0 mm 6,4 km/h (2 Bft) S-SO 202 0 min 0,000 mm 0,0 UV-I 0 W/m 6,4 C 7,0 C 11,3 km/h (2 Bft)
06/06/2020 01:31 7,1 C 8,9 C 7,1 C 7,1 C 8,3 C 96 % 53 cb 999,5 hPa 0,0 mm 3,2 km/h (1 Bft) O-SO 247 0 min 0,000 mm 0,0 UV-I 0 W/m 6,5 C 7,1 C 4,8 km/h (1 Bft)
06/06/2020 00:31 6,3 C 7,8 C 6,3 C 6,3 C 7,2 C 95 % 50 cb 999,6 hPa 0,0 mm 4,8 km/h (1 Bft) S-SO 202 0 min 0,000 mm 0,0 UV-I 0 W/m 5,6 C 6,3 C 8,0 km/h (2 Bft)
05/06/2020 23:31 6,8 C 7,8 C 6,8 C 6,8 C 7,8 C 95 % 49 cb 999,7 hPa 0,0 mm 6,4 km/h (2 Bft) SO 225 0 min 0,000 mm 0,0 UV-I 0 W/m 6,1 C 6,8 C 9,7 km/h (2 Bft)
05/06/2020 22:31 6,9 C 7,8 C 6,9 C 7,0 C 7,8 C 94 % 47 cb 999,6 hPa 0,0 mm 6,4 km/h (2 Bft) S-SO 202 0 min 0,000 mm 0,0 UV-I 0 W/m 6,0 C 6,9 C 8,0 km/h (2 Bft)
05/06/2020 21:31 7,8 C 10,0 C 7,8 C 7,8 C 8,9 C 93 % 47 cb 999,3 hPa 0,2 mm 3,2 km/h (1 Bft) O-SO 247 0 min 0,025 mm 0,0 UV-I 7 W/m 6,7 C 7,8 C 8,0 km/h (2 Bft)
05/06/2020 20:31 7,8 C 10,0 C 7,8 C 7,8 C 8,9 C 92 % 46 cb 999,1 hPa 0,4 mm 9,7 km/h (2 Bft) SO 225 0 min 0,025 mm 0,0 UV-I 9 W/m 6,6 C 5,4 C 14,5 km/h (3 Bft)
05/06/2020 19:31 8,4 C 11,7 C 8,4 C 8,4 C 10,0 C 92 % 46 cb 998,6 hPa 0,2 mm 9,7 km/h (2 Bft) O-SO 247 1 min 0,025 mm 0,0 UV-I 46 W/m 7,2 C 6,0 C 11,3 km/h (2 Bft)
05/06/2020 18:31 8,6 C 11,7 C 8,6 C 8,6 C 10,0 C 90 % 45 cb 998,1 hPa 1,0 mm 6,4 km/h (2 Bft) O 270 0 min 0,051 mm 0,0 UV-I 44 W/m 7,1 C 8,6 C 8,0 km/h (2 Bft)
05/06/2020 17:31 10,7 C 13,9 C 10,7 C 10,8 C 11,7 C 82 % 52 cb 997,1 hPa 0,4 mm 9,7 km/h (2 Bft) O 270 30 min 0,178 mm 0,0 UV-I 67 W/m 7,8 C 8,5 C 17,7 km/h (3 Bft)
05/06/2020 16:31 13,3 C 20,6 C 13,3 C 13,3 C 13,3 C 61 % 47 cb 995,8 hPa 0,0 mm 11,3 km/h (2 Bft) O 270 55 min 0,305 mm 1,9 UV-I 221 W/m 5,9 C 10,6 C 17,7 km/h (3 Bft)
05/06/2020 15:31 13,8 C 28,9 C 13,6 C 13,8 C 13,3 C 65 % 43 cb 995,2 hPa 0,0 mm 16,1 km/h (3 Bft) O 270 60 min 0,330 mm 5,3 UV-I 847 W/m 7,3 C 9,4 C 22,5 km/h (4 Bft)
05/06/2020 14:31 13,6 C 36,1 C 13,6 C 13,6 C 13,3 C 81 % 44 cb 994,6 hPa 0,0 mm 20,9 km/h (4 Bft) O-SO 247 60 min 0,178 mm 6,1 UV-I 940 W/m 10,4 C 7,7 C 30,6 km/h (5 Bft)
05/06/2020 13:31 10,8 C 22,8 C 10,8 C 10,8 C 11,7 C 96 % 44 cb 994,1 hPa 0,6 mm 16,1 km/h (3 Bft) O-SO 247 24 min 0,051 mm 4,5 UV-I 482 W/m 10,2 C 5,7 C 29,0 km/h (5 Bft)
05/06/2020 12:31 10,4 C 15,6 C 10,4 C 10,4 C 11,1 C 97 % 41 cb 994,1 hPa 0,8 mm 11,3 km/h (2 Bft) O-SO 247 6 min 0,051 mm 2,0 UV-I 202 W/m 9,9 C 7,3 C 14,5 km/h (3 Bft)
05/06/2020 12:00 10,2 C 15,0 C 10,2 C 10,2 C 11,1 C 96 % 39 cb 994,3 hPa 0,0 mm 14,5 km/h (3 Bft) O-SO 247 0 min 0,051 mm 0,7 UV-I 88 W/m 9,6 C 5,6 C 19,3 km/h (3 Bft)
_ Min-Heure 00:15 23:58 00:15 00:17 23:51 16:09 12:00 12:30 - 19:18 - - - - - - 16:09 08:49 00:04
Minimum _ 6,3 C 7,2 C 6,3 C 6,3 C 7,2 C 56 % 39 cb 994,0 hPa - 0,0 km/h (0 Bft) - - - - - - 5,3 C 0,9 C 0,0 km/h (0 Bft)
_ Max-Heure 15:39 14:47 15:38 15:39 14:42 12:25 07:50 10:55 08:51 15:21 - - 12:07 15:00 14:14 14:26 13:54 16:05 15:21
Maximum _ 15,0 C 43,9 C 14,9 C 15,0 C 14,4 C 97 % 82 cb 1001,4 hPa 0,4 mm 33,8 km/h
O-SO (5 Bft)
- - 1 min 0,330 mm 6,7 UV-I 1071 W/m 12,0 C 13,2 C 59,5 km/h
O-SO (7 Bft)
Moyenne _ 9,1 C 14,3 C 9,1 C 9,1 C 9,9 C 90 % 52 cb 998,2 hPa #6,2 mm 9,9 km/h (2 Bft) O-SO - #1:47 h #0,355 mm 1,7 UV-I 75 W/m 7,5 C 6,8 C 14,7 km/h (3 Bft)